Create Custom Reports and Graphics: Custom Report

Alpine-Summit 8643' (Ward Mt.)

Current Conditions

3/29/20 2:15 PM (-07:00)
Updated Every 15 Minutes
Temp 29.8 °F   0.8
RH 100 %   0
Wet Bulb 29.8 °F   0.8
Dew Pt 29.8 °F   0.7
Wind Spd 34.2 mph   10.9
Wind Dir SW | 217 °
Wind Gust 39.9 mph   13.8
WindChill 14.7 °F   2.4

Last 6 Hours

Alpine-Summit 8643' (Ward Mt.)

15 Minute Data | America/Los_Angeles
as of 3/29/20 2:16 PM PDT
Date & Time Temp (°F) RH (%) Dew Pt (°F) Wet Bulb (°F) Wind Dir (°) Wind Spd (mph) Wind Gust (mph) WindChill (°F)
3/29/20 - 1415 29.8 100 29.8 29.8 SW | 217 34.2 39.9 14.7
3/29/20 - 1400 30.7 100 30.7 30.7 SSW | 210 30.8 38.5 15.4
3/29/20 - 1345 30.3 100 30.3 30.3 SSW | 213 27.2 32.9 16.2
3/29/20 - 1330 30.7 100 30.7 30.7 SW | 214 26.5 31.8 16.3
3/29/20 - 1315 30.1 100 30.1 30.1 SW | 216 27.4 33.4 15.1
3/29/20 - 1300 29.4 100 29.4 29.4 SW | 217 27.2 30.7 15.2
3/29/20 - 1245 30.0 99 29.8 29.9 SW | 217 27.2 32.0 14.5
3/29/20 - 1230 28.9 100 28.9 28.9 SW | 227 27.4 34.2 14.2
3/29/20 - 1215 29.4 100 29.4 29.4 SW | 220 27.0 33.9 15.3
3/29/20 - 1200 29.6 100 29.6 29.6 SW | 219 24.7 28.4 15.9
3/29/20 - 1145 29.8 100 29.8 29.8 SSW | 213 22.4 28.1 16.4
3/29/20 - 1130 29.6 100 29.6 29.6 SW | 218 21.5 28.4 15.9
3/29/20 - 1115 29.0 100 29.0 29.0 SSW | 213 24.3 28.5 14.7
3/29/20 - 1100 29.2 100 29.1 29.2 SSW | 211 26.6 29.8 13.9
3/29/20 - 1045 28.3 100 28.2 28.2 SSW | 208 23.5 27.2 13.6
3/29/20 - 1030 27.2 99 27.0 27.1 SW | 225 23.9 27.3 12.0
3/29/20 - 1015 26.5 99 26.4 26.5 SSW | 212 27.7 33.5 10.5
3/29/20 - 1000 26.2 99 25.9 26.0 SW | 218 30.6 35.3 8.9
3/29/20 - 0945 25.1 99 24.8 24.9 SW | 225 32.5 38.0 7.3
3/29/20 - 0930 24.9 99 24.6 24.7 SW | 233 32.8 38.7 7.1
3/29/20 - 0915 24.5 98 24.1 24.4 SW | 232 33.0 37.9 6.4
3/29/20 - 0900 24.1 98 23.7 23.9 SW | 236 32.1 37.1 6.2
3/29/20 - 0845 23.8 98 23.4 23.6 WSW | 239 30.1 33.0 6.4
3/29/20 - 0830 23.7 98 23.3 23.6 SW | 236 28.6 34.7 6.6
Max 30.7 100 30.7 30.7 - 34.2 39.9 16.4
Avg 28.0 99 27.8 27.9 - 27.9 33.1 12.4
Min 23.7 98 23.3 23.6 - 21.5 27.2 6.2

Last 30 Days

Alpine-Summit 8643' (Ward Mt.)

Daily Data | America/Los_Angeles
as of 3/29/20 2:16 PM PDT
Date Daily Max Temp (°F) Max Temp Time Daily Min Temp (°F) Min Temp Time Wind Spd (mph) Daily Max Wind (mph) Max RH (%) Min RH (%) Wet Bulb (°F)
3/28/20 30.6 1412 17.5 0119 21.5 37.1 100 95 23.1
3/27/20 25.6 1455 12.8 0443 23.1 58.4 99 94 18.4
3/26/20 28.5 1354 11.2 0743 5.5 25.4 100 93 17.6
3/25/20 26.1 1404 14.4 2356 33.1 78.0 100 95 18.7
3/24/20 25.2 0000 19.1 2359 55.3 107.4 99 97 22.6
3/23/20 28.6 1237 24.2 0120 41.2 91.5 99 93 26.1
3/22/20 37.1 1429 24.1 2218 15.4 30.1 99 7 27.1
3/21/20 36.7 1633 22.7 0040 20.8 49.0 100 93 27.7
3/20/20 34.0 1558 18.2 0536 21.0 39.0 100 96 24.8
3/19/20 34.3 1515 15.4 0708 11.5 33.4 100 89 23.6
3/18/20 30.8 1434 16.2 0718 31.0 56.2 100 95 20.2
3/17/20 25.8 1435 13.5 0725 34.9 53.2 99 94 18.1
3/16/20 32.1 1445 18.9 2358 18.0 84.1 100 96 23.2
3/15/20 24.4 1300 18.9 2036 41.3 110.6 98 95 21.0
3/14/20 27.5 0001 19.3 2209 52.5 92.9 98 96 22.4
3/13/20 39.4 1448 27.4 2357 42.2 115.2 99 38 28.8
3/12/20 46.9 1641 29.4 0652 44.1 67.5 85 37 30.7
3/11/20 49.9 1704 29.7 0714 14.0 41.6 90 46 33.2
3/10/20 45.4 1652 25.9 0710 30.9 59.7 95 47 29.3
3/9/20 37.1 1618 21.5 0858 19.7 42.4 98 71 26.6
3/8/20 30.6 1324 21.5 0604 19.1 46.4 98 92 24.9
3/7/20 31.6 0031 22.3 2300 46.0 85.0 98 81 24.7
3/6/20 45.6 1551 31.1 2329 40.9 69.2 82 39 30.7
3/5/20 48.5 1451 35.2 2329 28.3 48.9 84 25 33.2
3/4/20 51.3 1541 34.0 0615 14.5 35.8 63 21 32.0
3/3/20 50.6 1530 26.0 0217 35.0 59.1 93 39 30.2
3/2/20 29.8 1603 12.0 0251 66.3 107.3 91 67 18.8
3/1/20 22.0 1220 13.6 2326 43.3 94.7 95 88 17.0
2/29/20 38.6 1412 21.3 2355 44.4 72.0 95 40 26.6
2/28/20 46.7 1502 30.9 2242 29.8 56.5 91 13 30.5
Max 51.3 - 35.2 - 66.3 115.2 100 97 33.2
Avg - - - - 31.5 - - - 25.1
Min 22.0 - 11.2 - 5.5 25.4 63 7 17.0
Calm: 0.0%
Calm: 0.0%